Bei Facebook empfehlenBei Twitter postenGoogle plusPinterest

Das Wetter im Erzgebirge am 02.10.2016

Wetter und Klima am 02.10.2016 Holzhau im Erzgebirge (630m ü.NN)
Letzte gemessene Temperatur und Uhrzeit der Messung23:45:00 Uhr5.40 °C
Temperatur (Maximum / Höchstwert) und Uhrzeit der Messung12:15:00 Uhr17.50 °C
Temperatur (Minimum / Tiefstwert) und Uhrzeit der Messung23:45:005.40 °C
Errechneter Absolutwert der Temperaturschwankungen zwischen Tmin und Tmax des Tages12.10 K
Errechnete Tagesmitteltemperatur10.37604 °C
Gesamt - Niederschlag des Tages (in flüssiger Form)2.07 Liter / m²
Luftdruck (Maximum / Höchstwert) und Zeitpunkt der Messung23:45:00 Uhr1013.40 hPa
Luftdruck (Minimum / Tiefstwert) und Zeitpunkt der Messung00:15:00 Uhr1008.80 hPa
Errechneter Absolutwert der Luftdruckschwankungen des Tages4.60 hPa
Höchste gemessene Windgeschwindigkeit und Uhrzeit der Messung23:45:00 Uhr0.00 km/h
Errechnete Windhäufigkeit in Relation zu den Messwerten des Tages0.00000 %
Niedrigste Windkühle (Windchill) und Zeitpunkt der Messung23:45:00 Uhr5.40 °C
Taupunkt (Maximum / Höchstwert) und Uhrzeit der Messung11:15:00 Uhr13.50 °C
Taupunkt (Minimum / Tiefstwert) und Uhrzeit der Messung23:45:004.20 °C
Anzahl der automatisch eingelesenen Messwerte 96

Detaillierte Wetter- und Klima- Messwerte für den 02.10.2016 in Holzhau im Erzgebirge (630m ü.NN)
ZeitTemperaturLuftdruckRel. LuftfeuchteWindWindrichtungWindchillTaupunktNiederschlag l/m²
23:45:005.40 °C1013.40 hPa92.00 %4.20 °C2.07
23:30:005.70 °C1013.30 hPa91.00 %4.30 °C2.07
23:15:006.00 °C1013.30 hPa91.00 %4.60 °C2.07
23:00:006.40 °C1013.20 hPa91.00 %5.00 °C2.07
22:45:006.50 °C1013.20 hPa91.00 %5.10 °C2.07
22:30:006.80 °C1013.10 hPa91.00 %5.40 °C2.07
22:15:007.10 °C1013.00 hPa91.00 %5.70 °C2.07
22:00:007.50 °C1012.70 hPa91.00 %6.10 °C2.07
21:45:007.50 °C1013.00 hPa90.00 %6.00 °C2.07
21:30:007.90 °C1012.70 hPa91.00 %6.50 °C2.07
21:15:007.90 °C1012.60 hPa90.00 %6.40 °C2.07
21:00:008.30 °C1012.50 hPa90.00 %6.80 °C2.07
20:45:008.40 °C1012.40 hPa90.00 %6.90 °C2.07
20:30:008.90 °C1012.30 hPa89.00 %7.20 °C2.07
20:15:009.30 °C1012.10 hPa89.00 %7.60 °C2.07
20:00:009.30 °C1011.90 hPa90.00 %7.70 °C2.07
19:45:009.40 °C1011.70 hPa89.00 %7.70 °C2.07
19:30:009.60 °C1011.90 hPa88.00 %7.70 °C1.55
19:15:009.80 °C1011.60 hPa88.00 %7.90 °C1.55
19:00:009.90 °C1011.50 hPa88.00 %8.00 °C1.55
18:45:0010.10 °C1011.50 hPa87.00 %8.00 °C1.04
18:30:0010.40 °C1011.50 hPa86.00 %8.20 °C0.52
18:15:0010.80 °C1011.50 hPa86.00 %8.60 °C0.52
18:00:0011.20 °C1011.20 hPa85.00 %8.80 °C0.52
17:45:0011.60 °C1011.20 hPa84.00 %9.00 °C 
17:30:0012.10 °C1010.90 hPa83.00 %9.30 °C 
17:15:0012.40 °C1010.80 hPa82.00 %9.40 °C 
17:00:0012.60 °C1010.80 hPa82.00 %9.60 °C 
16:45:0012.90 °C1010.80 hPa81.00 %9.70 °C 
16:30:0013.20 °C1010.60 hPa81.00 %10.00 °C 
16:15:0013.10 °C1010.70 hPa80.00 %9.70 °C 
16:00:0012.90 °C1010.90 hPa79.00 %9.40 °C 
15:45:0013.30 °C1011.00 hPa78.00 %9.50 °C 
15:30:0013.60 °C1010.90 hPa77.00 %9.60 °C 
15:15:0014.10 °C1010.90 hPa76.00 %9.90 °C 
15:00:0014.40 °C1010.70 hPa75.00 %10.00 °C 
14:45:0014.90 °C1010.80 hPa75.00 %10.50 °C 
14:30:0015.30 °C1010.70 hPa75.00 %10.90 °C 
14:15:0015.00 °C1010.80 hPa76.00 %10.80 °C 
14:00:0014.90 °C1010.80 hPa76.00 %10.70 °C 
13:45:0015.20 °C1010.80 hPa75.00 %10.80 °C 
13:30:0015.80 °C1011.00 hPa75.00 %11.40 °C 
13:15:0015.30 °C1010.90 hPa75.00 %10.90 °C 
13:00:0015.40 °C1011.10 hPa74.00 %10.80 °C 
12:45:0015.90 °C1010.90 hPa73.00 %11.10 °C 
12:30:0016.90 °C1010.70 hPa72.00 %11.80 °C 
12:15:0017.50 °C1010.70 hPa73.00 %12.60 °C 
12:00:0016.90 °C1010.60 hPa76.00 %12.60 °C 
11:45:0016.30 °C1010.70 hPa80.00 %12.80 °C 
11:30:0015.50 °C1010.60 hPa84.00 %12.80 °C 
11:15:0015.10 °C1010.60 hPa90.00 %13.50 °C 
11:00:0014.10 °C1010.60 hPa91.00 %12.70 °C 
10:45:0013.60 °C1010.50 hPa93.00 %12.50 °C 
10:30:0012.50 °C1010.70 hPa94.00 %11.60 °C 
10:15:0011.90 °C1010.70 hPa94.00 %11.00 °C 
10:00:0011.30 °C1010.60 hPa95.00 %10.50 °C 
09:45:0010.40 °C1010.70 hPa95.00 %9.60 °C 
09:30:009.90 °C1010.20 hPa94.00 %9.00 °C 
09:15:008.80 °C1010.30 hPa94.00 %7.90 °C 
09:00:007.50 °C1010.30 hPa94.00 %6.60 °C 
08:45:006.60 °C1010.40 hPa94.00 %5.70 °C 
08:30:006.10 °C1010.10 hPa93.00 %5.10 °C 
08:15:005.90 °C1010.00 hPa93.00 %4.90 °C 
08:00:005.80 °C1010.30 hPa93.00 %4.80 °C 
07:45:005.90 °C1010.20 hPa93.00 %4.90 °C 
07:30:005.80 °C1010.20 hPa93.00 %4.80 °C 
07:15:006.10 °C1010.30 hPa93.00 %5.10 °C 
07:00:006.30 °C1009.80 hPa93.00 %5.30 °C 
06:45:006.40 °C1009.70 hPa93.00 %5.40 °C 
06:30:006.40 °C1009.80 hPa93.00 %5.40 °C 
06:15:006.80 °C1009.70 hPa93.00 %5.70 °C 
06:00:007.20 °C1009.50 hPa92.00 %6.00 °C 
05:45:007.40 °C1009.50 hPa92.00 %6.20 °C 
05:30:007.70 °C1009.40 hPa93.00 %6.60 °C 
05:15:007.80 °C1009.40 hPa93.00 %6.70 °C 
05:00:007.90 °C1009.30 hPa93.00 %6.80 °C 
04:45:008.10 °C1009.30 hPa92.00 %6.90 °C 
04:30:008.40 °C1009.30 hPa92.00 %7.20 °C 
04:15:008.60 °C1009.40 hPa92.00 %7.40 °C 
04:00:008.90 °C1009.30 hPa92.00 %7.70 °C 
03:45:009.10 °C1009.30 hPa92.00 %7.90 °C 
03:30:008.90 °C1009.50 hPa92.00 %7.70 °C 
03:15:008.80 °C1009.40 hPa91.00 %7.40 °C 
03:00:008.80 °C1009.70 hPa91.00 %7.40 °C 
02:45:009.20 °C1009.40 hPa91.00 %7.80 °C 
02:30:009.60 °C1009.50 hPa91.00 %8.20 °C 
02:15:0010.30 °C1009.50 hPa91.00 %8.90 °C 
02:00:0010.90 °C1009.30 hPa91.00 %9.50 °C 
01:45:0011.20 °C1009.30 hPa91.00 %9.80 °C 
01:30:0011.50 °C1009.00 hPa91.00 %10.10 °C 
01:15:0011.60 °C1008.90 hPa92.00 %10.30 °C 
01:00:0011.30 °C1008.90 hPa91.00 %9.90 °C 
00:45:0010.60 °C1008.90 hPa91.00 %9.20 °C 
00:30:0010.30 °C1008.90 hPa90.00 %8.70 °C 
00:15:0010.60 °C1008.80 hPa91.00 %9.20 °C 
00:00:0011.10 °C1008.80 hPa90.00 %9.50 °C 

Permanenter Link zu dieser Seite: Wetter im Erzgebirge am 02.10.2016
Performance-Info: Die Erstellung der Seite / Statistik(en) / Tabelle(n) erforderte 5 Datenbankserver-Abfrage(n) und dauerte 121 Millisekunden. (Dieser Messwert ist von der Gesamt-Auslastung des Servers abhängig.)
Erzgebirge - Wetter | Erzgebirge - Wetter (Mobilgeräte) | Komplette Klimadatenbank